Portada
METAR-TAF:

METAR-TAF

Aeropuertos :

Colmenar Viejo, España

latitud: 40-39N, longitud: 003-44W, altitud: -999 m

Observación

El informe se hizo hace 1 hora y 24 minutos, a las 18:00 UTC
Viento 2 kt con dirección variable
Temperatura 7°C
Humedad 87%
Presión 1018 hPa
Visibilidad 10 km o más
Escasas nubes a una altura de 1000 ft

METAR: LECV 291800Z VRB02KT 9999 FEW010 07/05 Q1018

Hora: 20:24 (19:24 UTC)

Pronóstico

El informe se hizo hace 2 horas y 24 minutos, a las 17:00 UTC
Pronóstico válido del 29 a las 18 UTC al 30 a las 18 UTC
Viento 5 kt del noreste
Visibilidad 10 km o más
sin nubes por debajo de 1500 m y sin presencia de cumulonimbus.

TAF: LECV 291700Z 2918/3018 05005KT CAVOK TX14/3014Z TN05/3005Z

Observaciones y pronósticos meteorológicos de más de 4000 aeropuertos (mensajes METAR y TAF).

Los puntos amarillos y rojos representan las estaciones disponibles.

Ponga el ratón en el punto deseado para ver el nombre de la estación.

Haga clic para ver las observaciones y los pronósticos meteorológicos.

Para cambiar el mapa : haga clic en los botones verdes con una cruz de color negro para hacer un zoom, en el botón verde con un guión para alejar o en las flechas verdes para mapas adyacentes.


METAR-TAF: